sensor_id;sensor_type;location;lat;lon;timestamp;temperature;humidity
66752;SHT31;53663;42.676;23.238;2023-09-19T00:02:16;15.99;71.12
66752;SHT31;53663;42.676;23.238;2023-09-19T00:04:43;15.96;71.11
66752;SHT31;53663;42.676;23.238;2023-09-19T00:07:08;15.99;71.01
66752;SHT31;53663;42.676;23.238;2023-09-19T00:09:34;15.93;71.13
66752;SHT31;53663;42.676;23.238;2023-09-19T00:12:06;15.95;71.39
66752;SHT31;53663;42.676;23.238;2023-09-19T00:14:33;15.88;71.55
66752;SHT31;53663;42.676;23.238;2023-09-19T00:17:02;15.89;71.26
66752;SHT31;53663;42.676;23.238;2023-09-19T00:19:36;15.86;71.39
66752;SHT31;53663;42.676;23.238;2023-09-19T00:22:03;15.82;71.52
66752;SHT31;53663;42.676;23.238;2023-09-19T00:24:29;15.81;71.66
66752;SHT31;53663;42.676;23.238;2023-09-19T00:26:56;15.78;71.86
66752;SHT31;53663;42.676;23.238;2023-09-19T00:29:21;15.73;71.91
66752;SHT31;53663;42.676;23.238;2023-09-19T00:31:49;15.75;72.08
66752;SHT31;53663;42.676;23.238;2023-09-19T00:34:15;15.75;72.26
66752;SHT31;53663;42.676;23.238;2023-09-19T00:36:41;15.71;72.51
66752;SHT31;53663;42.676;23.238;2023-09-19T00:39:08;15.65;72.48
66752;SHT31;53663;42.676;23.238;2023-09-19T00:41:34;15.62;72.35
66752;SHT31;53663;42.676;23.238;2023-09-19T00:44:02;15.59;72.62
66752;SHT31;53663;42.676;23.238;2023-09-19T00:46:30;15.62;72.91
66752;SHT31;53663;42.676;23.238;2023-09-19T00:48:56;15.54;72.93
66752;SHT31;53663;42.676;23.238;2023-09-19T00:51:23;15.58;73.06
66752;SHT31;53663;42.676;23.238;2023-09-19T00:53:51;15.45;73.14
66752;SHT31;53663;42.676;23.238;2023-09-19T00:56:18;15.42;73.37
66752;SHT31;53663;42.676;23.238;2023-09-19T00:58:44;15.41;73.40
66752;SHT31;53663;42.676;23.238;2023-09-19T01:01:12;15.38;73.54
66752;SHT31;53663;42.676;23.238;2023-09-19T01:03:40;15.44;73.36
66752;SHT31;53663;42.676;23.238;2023-09-19T01:06:07;15.40;73.29
66752;SHT31;53663;42.676;23.238;2023-09-19T01:08:34;15.38;73.40
66752;SHT31;53663;42.676;23.238;2023-09-19T01:11:33;15.30;73.66
66752;SHT31;53663;42.676;23.238;2023-09-19T01:16:37;15.31;73.71
66752;SHT31;53663;42.676;23.238;2023-09-19T01:30:22;15.14;74.33
66752;SHT31;53663;42.676;23.238;2023-09-19T01:32:53;15.10;74.37
66752;SHT31;53663;42.676;23.238;2023-09-19T01:35:19;15.13;74.39
66752;SHT31;53663;42.676;23.238;2023-09-19T01:37:45;15.13;74.19
66752;SHT31;53663;42.676;23.238;2023-09-19T01:40:16;15.16;74.30
66752;SHT31;53663;42.676;23.238;2023-09-19T01:42:59;15.04;74.26
66752;SHT31;53663;42.676;23.238;2023-09-19T01:45:53;15.03;74.51
66752;SHT31;53663;42.676;23.238;2023-09-19T01:48:35;15.00;74.38
66752;SHT31;53663;42.676;23.238;2023-09-19T01:51:08;15.00;74.58
66752;SHT31;53663;42.676;23.238;2023-09-19T01:53:56;14.96;74.71
66752;SHT31;53663;42.676;23.238;2023-09-19T01:56:47;14.86;75.02
66752;SHT31;53663;42.676;23.238;2023-09-19T01:59:17;14.87;75.05
66752;SHT31;53663;42.676;23.238;2023-09-19T02:01:48;14.89;75.12
66752;SHT31;53663;42.676;23.238;2023-09-19T02:04:15;14.92;74.87
66752;SHT31;53663;42.676;23.238;2023-09-19T02:06:41;14.87;74.90
66752;SHT31;53663;42.676;23.238;2023-09-19T02:09:06;14.87;74.97
66752;SHT31;53663;42.676;23.238;2023-09-19T02:11:32;14.86;75.26
66752;SHT31;53663;42.676;23.238;2023-09-19T02:13:58;14.86;75.10
66752;SHT31;53663;42.676;23.238;2023-09-19T02:16:24;14.83;74.74
66752;SHT31;53663;42.676;23.238;2023-09-19T02:18:50;14.82;75.00
66752;SHT31;53663;42.676;23.238;2023-09-19T02:21:17;14.80;75.17
66752;SHT31;53663;42.676;23.238;2023-09-19T02:23:44;14.86;75.34
66752;SHT31;53663;42.676;23.238;2023-09-19T02:26:12;14.84;75.24
66752;SHT31;53663;42.676;23.238;2023-09-19T02:28:40;14.84;75.55
66752;SHT31;53663;42.676;23.238;2023-09-19T02:31:07;14.73;75.25
66752;SHT31;53663;42.676;23.238;2023-09-19T02:33:33;14.75;75.51
66752;SHT31;53663;42.676;23.238;2023-09-19T02:35:59;14.69;75.41
66752;SHT31;53663;42.676;23.238;2023-09-19T02:38:26;14.63;75.79
66752;SHT31;53663;42.676;23.238;2023-09-19T02:40:52;14.69;76.06
66752;SHT31;53663;42.676;23.238;2023-09-19T02:43:18;14.65;75.90
66752;SHT31;53663;42.676;23.238;2023-09-19T02:45:45;14.63;76.06
66752;SHT31;53663;42.676;23.238;2023-09-19T02:48:12;14.62;76.21
66752;SHT31;53663;42.676;23.238;2023-09-19T02:50:38;14.59;76.27
66752;SHT31;53663;42.676;23.238;2023-09-19T02:53:05;14.55;76.34
66752;SHT31;53663;42.676;23.238;2023-09-19T02:55:32;14.48;76.71
66752;SHT31;53663;42.676;23.238;2023-09-19T02:57:58;14.49;76.64
66752;SHT31;53663;42.676;23.238;2023-09-19T03:00:24;14.36;76.75
66752;SHT31;53663;42.676;23.238;2023-09-19T03:02:54;14.35;76.86
66752;SHT31;53663;42.676;23.238;2023-09-19T03:05:21;14.36;76.61
66752;SHT31;53663;42.676;23.238;2023-09-19T03:07:47;14.31;76.60
66752;SHT31;53663;42.676;23.238;2023-09-19T03:10:20;14.36;76.69
66752;SHT31;53663;42.676;23.238;2023-09-19T03:12:47;14.35;76.56
66752;SHT31;53663;42.676;23.238;2023-09-19T03:15:14;14.35;76.77
66752;SHT31;53663;42.676;23.238;2023-09-19T03:17:43;14.28;76.82
66752;SHT31;53663;42.676;23.238;2023-09-19T03:20:10;14.18;77.29
66752;SHT31;53663;42.676;23.238;2023-09-19T03:22:38;14.29;77.42
66752;SHT31;53663;42.676;23.238;2023-09-19T03:25:06;14.22;77.36
66752;SHT31;53663;42.676;23.238;2023-09-19T03:27:38;14.17;77.63
66752;SHT31;53663;42.676;23.238;2023-09-19T03:30:06;14.14;77.78
66752;SHT31;53663;42.676;23.238;2023-09-19T03:32:37;14.14;77.87
66752;SHT31;53663;42.676;23.238;2023-09-19T03:35:03;14.13;77.79
66752;SHT31;53663;42.676;23.238;2023-09-19T03:37:31;14.13;77.57
66752;SHT31;53663;42.676;23.238;2023-09-19T03:39:58;14.14;77.70
66752;SHT31;53663;42.676;23.238;2023-09-19T03:42:24;14.15;77.95
66752;SHT31;53663;42.676;23.238;2023-09-19T03:44:52;14.15;77.92
66752;SHT31;53663;42.676;23.238;2023-09-19T03:47:20;14.10;78.01
66752;SHT31;53663;42.676;23.238;2023-09-19T03:49:45;14.04;78.23
66752;SHT31;53663;42.676;23.238;2023-09-19T03:52:11;14.05;78.50
66752;SHT31;53663;42.676;23.238;2023-09-19T03:54:37;14.05;78.28
66752;SHT31;53663;42.676;23.238;2023-09-19T03:57:02;13.93;78.50
66752;SHT31;53663;42.676;23.238;2023-09-19T03:59:29;14.01;78.34
66752;SHT31;53663;42.676;23.238;2023-09-19T04:01:55;13.98;78.25
66752;SHT31;53663;42.676;23.238;2023-09-19T04:04:22;13.93;78.40
66752;SHT31;53663;42.676;23.238;2023-09-19T04:06:50;13.97;78.46
66752;SHT31;53663;42.676;23.238;2023-09-19T04:09:16;13.98;78.24
66752;SHT31;53663;42.676;23.238;2023-09-19T04:11:41;13.98;78.14
66752;SHT31;53663;42.676;23.238;2023-09-19T04:14:07;14.01;78.43
66752;SHT31;53663;42.676;23.238;2023-09-19T04:16:32;14.03;78.34
66752;SHT31;53663;42.676;23.238;2023-09-19T04:18:58;14.05;78.46
66752;SHT31;53663;42.676;23.238;2023-09-19T04:21:24;14.10;78.45
66752;SHT31;53663;42.676;23.238;2023-09-19T04:23:50;14.01;78.77
66752;SHT31;53663;42.676;23.238;2023-09-19T04:26:15;13.90;79.62
66752;SHT31;53663;42.676;23.238;2023-09-19T04:28:41;13.98;79.30
66752;SHT31;53663;42.676;23.238;2023-09-19T04:31:09;14.11;79.41
66752;SHT31;53663;42.676;23.238;2023-09-19T04:33:36;14.21;78.79
66752;SHT31;53663;42.676;23.238;2023-09-19T04:36:02;14.36;78.10
66752;SHT31;53663;42.676;23.238;2023-09-19T04:38:28;14.49;77.36
66752;SHT31;53663;42.676;23.238;2023-09-19T04:40:57;14.71;76.79
66752;SHT31;53663;42.676;23.238;2023-09-19T04:43:24;14.83;76.45
66752;SHT31;53663;42.676;23.238;2023-09-19T04:45:50;14.82;76.86
66752;SHT31;53663;42.676;23.238;2023-09-19T04:48:16;14.86;76.71
66752;SHT31;53663;42.676;23.238;2023-09-19T04:50:41;14.96;76.42
66752;SHT31;53663;42.676;23.238;2023-09-19T04:53:08;15.07;75.92
66752;SHT31;53663;42.676;23.238;2023-09-19T04:55:33;15.37;75.42
66752;SHT31;53663;42.676;23.238;2023-09-19T04:57:59;15.71;74.23
66752;SHT31;53663;42.676;23.238;2023-09-19T05:00:24;16.05;73.04
66752;SHT31;53663;42.676;23.238;2023-09-19T05:02:51;16.33;71.84
66752;SHT31;53663;42.676;23.238;2023-09-19T05:05:19;16.64;71.49
66752;SHT31;53663;42.676;23.238;2023-09-19T05:07:45;16.75;71.64
66752;SHT31;53663;42.676;23.238;2023-09-19T05:10:11;16.99;70.14
66752;SHT31;53663;42.676;23.238;2023-09-19T05:12:38;17.27;69.22
66752;SHT31;53663;42.676;23.238;2023-09-19T05:15:04;17.64;68.31
66752;SHT31;53663;42.676;23.238;2023-09-19T05:17:30;17.83;67.16
66752;SHT31;53663;42.676;23.238;2023-09-19T05:19:57;17.90;67.06
66752;SHT31;53663;42.676;23.238;2023-09-19T05:22:23;17.88;66.78
66752;SHT31;53663;42.676;23.238;2023-09-19T05:24:50;18.01;65.93
66752;SHT31;53663;42.676;23.238;2023-09-19T05:27:16;17.73;67.23
66752;SHT31;53663;42.676;23.238;2023-09-19T05:29:45;18.42;65.93
66752;SHT31;53663;42.676;23.238;2023-09-19T05:32:11;18.83;64.60
66752;SHT31;53663;42.676;23.238;2023-09-19T05:34:37;18.62;64.73
66752;SHT31;53663;42.676;23.238;2023-09-19T05:37:03;18.63;64.48
66752;SHT31;53663;42.676;23.238;2023-09-19T05:39:30;18.50;65.18
66752;SHT31;53663;42.676;23.238;2023-09-19T05:41:55;17.73;67.16
66752;SHT31;53663;42.676;23.238;2023-09-19T05:44:22;17.27;68.77
66752;SHT31;53663;42.676;23.238;2023-09-19T05:46:48;17.49;68.62
66752;SHT31;53663;42.676;23.238;2023-09-19T05:49:14;17.85;67.66
66752;SHT31;53663;42.676;23.238;2023-09-19T05:51:39;18.25;66.56
66752;SHT31;53663;42.676;23.238;2023-09-19T05:54:05;18.64;65.42
66752;SHT31;53663;42.676;23.238;2023-09-19T05:56:30;18.38;65.45
66752;SHT31;53663;42.676;23.238;2023-09-19T05:58:56;18.33;65.64
66752;SHT31;53663;42.676;23.238;2023-09-19T06:01:22;18.48;65.27
66752;SHT31;53663;42.676;23.238;2023-09-19T06:03:47;18.56;64.83
66752;SHT31;53663;42.676;23.238;2023-09-19T06:06:14;18.74;64.94
66752;SHT31;53663;42.676;23.238;2023-09-19T06:08:39;18.41;64.55
66752;SHT31;53663;42.676;23.238;2023-09-19T06:11:05;18.16;65.96
66752;SHT31;53663;42.676;23.238;2023-09-19T06:13:34;18.60;64.49
66752;SHT31;53663;42.676;23.238;2023-09-19T06:16:00;18.79;63.63
66752;SHT31;53663;42.676;23.238;2023-09-19T06:18:33;19.15;62.32
66752;SHT31;53663;42.676;23.238;2023-09-19T06:21:01;19.61;61.25
66752;SHT31;53663;42.676;23.238;2023-09-19T06:23:30;20.35;59.43
66752;SHT31;53663;42.676;23.238;2023-09-19T06:25:56;20.78;57.97
66752;SHT31;53663;42.676;23.238;2023-09-19T06:28:22;20.98;56.74
66752;SHT31;53663;42.676;23.238;2023-09-19T06:30:49;21.29;56.02
66752;SHT31;53663;42.676;23.238;2023-09-19T06:33:15;21.43;55.85
66752;SHT31;53663;42.676;23.238;2023-09-19T06:35:40;21.40;56.00
66752;SHT31;53663;42.676;23.238;2023-09-19T06:38:07;21.44;55.90
66752;SHT31;53663;42.676;23.238;2023-09-19T06:40:34;21.57;56.10
66752;SHT31;53663;42.676;23.238;2023-09-19T06:43:00;21.74;56.45
66752;SHT31;53663;42.676;23.238;2023-09-19T06:45:28;21.62;56.66
66752;SHT31;53663;42.676;23.238;2023-09-19T06:47:53;21.19;56.97
66752;SHT31;53663;42.676;23.238;2023-09-19T06:50:23;21.20;57.24
66752;SHT31;53663;42.676;23.238;2023-09-19T06:52:50;21.49;56.74
66752;SHT31;53663;42.676;23.238;2023-09-19T06:55:21;22.20;55.34
66752;SHT31;53663;42.676;23.238;2023-09-19T06:57:49;22.60;53.59
66752;SHT31;53663;42.676;23.238;2023-09-19T07:00:15;21.97;54.75
66752;SHT31;53663;42.676;23.238;2023-09-19T07:05:35;22.37;54.01
66752;SHT31;53663;42.676;23.238;2023-09-19T07:08:09;22.56;53.79
66752;SHT31;53663;42.676;23.238;2023-09-19T07:10:38;22.13;53.82
66752;SHT31;53663;42.676;23.238;2023-09-19T07:13:07;22.46;53.78
66752;SHT31;53663;42.676;23.238;2023-09-19T07:15:34;22.61;53.35
66752;SHT31;53663;42.676;23.238;2023-09-19T07:18:07;22.66;52.97
66752;SHT31;53663;42.676;23.238;2023-09-19T07:20:34;22.52;54.26
66752;SHT31;53663;42.676;23.238;2023-09-19T07:22:59;22.04;55.06
66752;SHT31;53663;42.676;23.238;2023-09-19T07:25:26;21.36;56.39
66752;SHT31;53663;42.676;23.238;2023-09-19T07:27:52;21.34;56.91
66752;SHT31;53663;42.676;23.238;2023-09-19T07:30:17;21.54;56.25
66752;SHT31;53663;42.676;23.238;2023-09-19T07:32:43;21.97;55.00
66752;SHT31;53663;42.676;23.238;2023-09-19T07:35:09;21.91;56.07
66752;SHT31;53663;42.676;23.238;2023-09-19T07:37:34;22.10;54.53
66752;SHT31;53663;42.676;23.238;2023-09-19T07:40:04;22.28;54.99
66752;SHT31;53663;42.676;23.238;2023-09-19T07:42:34;22.08;55.15
66752;SHT31;53663;42.676;23.238;2023-09-19T07:45:09;22.16;54.32
66752;SHT31;53663;42.676;23.238;2023-09-19T07:47:43;22.32;53.88
66752;SHT31;53663;42.676;23.238;2023-09-19T07:50:09;22.59;53.81
66752;SHT31;53663;42.676;23.238;2023-09-19T07:52:35;22.60;53.88
66752;SHT31;53663;42.676;23.238;2023-09-19T07:55:00;23.01;53.27
66752;SHT31;53663;42.676;23.238;2023-09-19T07:57:31;23.26;52.87
66752;SHT31;53663;42.676;23.238;2023-09-19T07:59:57;23.69;51.93
66752;SHT31;53663;42.676;23.238;2023-09-19T08:02:22;23.89;49.69
66752;SHT31;53663;42.676;23.238;2023-09-19T08:04:48;24.04;50.17
66752;SHT31;53663;42.676;23.238;2023-09-19T08:07:14;23.82;50.16
66752;SHT31;53663;42.676;23.238;2023-09-19T08:09:40;23.79;51.01
66752;SHT31;53663;42.676;23.238;2023-09-19T08:12:06;24.18;50.70
66752;SHT31;53663;42.676;23.238;2023-09-19T08:14:36;23.84;50.61
66752;SHT31;53663;42.676;23.238;2023-09-19T08:17:01;24.99;48.27
66752;SHT31;53663;42.676;23.238;2023-09-19T08:19:27;25.60;46.48
66752;SHT31;53663;42.676;23.238;2023-09-19T08:21:57;25.05;47.12
66752;SHT31;53663;42.676;23.238;2023-09-19T08:24:27;25.28;46.45
66752;SHT31;53663;42.676;23.238;2023-09-19T08:26:54;26.06;46.09
66752;SHT31;53663;42.676;23.238;2023-09-19T08:29:21;26.09;45.87
66752;SHT31;53663;42.676;23.238;2023-09-19T08:31:47;26.59;44.99
66752;SHT31;53663;42.676;23.238;2023-09-19T08:34:16;28.01;43.06
66752;SHT31;53663;42.676;23.238;2023-09-19T08:36:41;28.68;40.74
66752;SHT31;53663;42.676;23.238;2023-09-19T08:39:09;28.35;42.57
66752;SHT31;53663;42.676;23.238;2023-09-19T08:41:34;27.71;41.93
66752;SHT31;53663;42.676;23.238;2023-09-19T08:44:00;27.69;41.78
66752;SHT31;53663;42.676;23.238;2023-09-19T08:46:30;26.67;43.00
66752;SHT31;53663;42.676;23.238;2023-09-19T08:49:04;25.98;44.93
66752;SHT31;53663;42.676;23.238;2023-09-19T08:51:52;24.71;47.29
66752;SHT31;53663;42.676;23.238;2023-09-19T08:54:25;24.10;49.11
66752;SHT31;53663;42.676;23.238;2023-09-19T08:56:55;25.03;49.14
66752;SHT31;53663;42.676;23.238;2023-09-19T08:59:22;25.36;47.15
66752;SHT31;53663;42.676;23.238;2023-09-19T09:01:55;24.62;48.26
66752;SHT31;53663;42.676;23.238;2023-09-19T09:04:22;25.19;47.29
66752;SHT31;53663;42.676;23.238;2023-09-19T09:06:49;25.13;47.03
66752;SHT31;53663;42.676;23.238;2023-09-19T09:09:18;25.22;47.50
66752;SHT31;53663;42.676;23.238;2023-09-19T09:11:45;25.55;47.30
66752;SHT31;53663;42.676;23.238;2023-09-19T09:14:11;26.13;46.32
66752;SHT31;53663;42.676;23.238;2023-09-19T09:16:37;26.67;45.32
66752;SHT31;53663;42.676;23.238;2023-09-19T09:19:04;27.02;44.84
66752;SHT31;53663;42.676;23.238;2023-09-19T09:21:30;26.61;44.58
66752;SHT31;53663;42.676;23.238;2023-09-19T09:24:26;26.05;45.98
66752;SHT31;53663;42.676;23.238;2023-09-19T09:26:51;25.44;46.77
66752;SHT31;53663;42.676;23.238;2023-09-19T09:29:42;25.51;46.48
66752;SHT31;53663;42.676;23.238;2023-09-19T09:32:28;25.94;46.35
66752;SHT31;53663;42.676;23.238;2023-09-19T09:34:59;25.60;46.00
66752;SHT31;53663;42.676;23.238;2023-09-19T09:37:25;25.67;45.97
66752;SHT31;53663;42.676;23.238;2023-09-19T09:39:56;26.19;44.74
66752;SHT31;53663;42.676;23.238;2023-09-19T09:42:34;26.73;44.47
66752;SHT31;53663;42.676;23.238;2023-09-19T09:45:32;26.56;43.91
66752;SHT31;53663;42.676;23.238;2023-09-19T09:47:58;26.61;45.15
66752;SHT31;53663;42.676;23.238;2023-09-19T09:50:25;26.32;44.50
66752;SHT31;53663;42.676;23.238;2023-09-19T09:52:56;26.18;45.43
66752;SHT31;53663;42.676;23.238;2023-09-19T10:01:13;24.80;47.94
66752;SHT31;53663;42.676;23.238;2023-09-19T10:03:41;24.95;47.39
66752;SHT31;53663;42.676;23.238;2023-09-19T10:06:14;25.02;47.82
66752;SHT31;53663;42.676;23.238;2023-09-19T10:09:04;24.62;49.14
66752;SHT31;53663;42.676;23.238;2023-09-19T10:11:48;24.18;50.36
66752;SHT31;53663;42.676;23.238;2023-09-19T10:14:29;24.28;49.83
66752;SHT31;53663;42.676;23.238;2023-09-19T10:16:58;24.73;49.68
66752;SHT31;53663;42.676;23.238;2023-09-19T10:19:54;24.45;50.35
66752;SHT31;53663;42.676;23.238;2023-09-19T10:22:26;24.68;49.39
66752;SHT31;53663;42.676;23.238;2023-09-19T10:24:56;24.49;49.69
66752;SHT31;53663;42.676;23.238;2023-09-19T10:27:25;24.49;49.02
66752;SHT31;53663;42.676;23.238;2023-09-19T10:29:52;24.51;49.12
66752;SHT31;53663;42.676;23.238;2023-09-19T10:32:23;24.34;50.71
66752;SHT31;53663;42.676;23.238;2023-09-19T10:34:49;24.28;50.35
66752;SHT31;53663;42.676;23.238;2023-09-19T10:37:16;24.30;50.09
66752;SHT31;53663;42.676;23.238;2023-09-19T10:39:46;24.31;50.79
66752;SHT31;53663;42.676;23.238;2023-09-19T10:42:18;24.24;51.27
66752;SHT31;53663;42.676;23.238;2023-09-19T10:44:45;24.16;51.40
66752;SHT31;53663;42.676;23.238;2023-09-19T10:47:12;24.17;51.78
66752;SHT31;53663;42.676;23.238;2023-09-19T10:49:44;24.01;50.38
66752;SHT31;53663;42.676;23.238;2023-09-19T10:52:13;24.20;49.98
66752;SHT31;53663;42.676;23.238;2023-09-19T10:54:46;24.45;49.71
66752;SHT31;53663;42.676;23.238;2023-09-19T10:57:23;24.48;49.92
66752;SHT31;53663;42.676;23.238;2023-09-19T11:00:06;24.41;49.35
66752;SHT31;53663;42.676;23.238;2023-09-19T11:05:41;24.65;48.55
66752;SHT31;53663;42.676;23.238;2023-09-19T11:08:07;24.73;48.60
66752;SHT31;53663;42.676;23.238;2023-09-19T11:10:49;24.75;48.77
66752;SHT31;53663;42.676;23.238;2023-09-19T11:13:26;24.82;48.15
66752;SHT31;53663;42.676;23.238;2023-09-19T11:18:52;24.83;48.17
66752;SHT31;53663;42.676;23.238;2023-09-19T11:24:27;24.85;48.36
66752;SHT31;53663;42.676;23.238;2023-09-19T11:27:13;25.28;48.33
66752;SHT31;53663;42.676;23.238;2023-09-19T11:29:40;25.41;47.96
66752;SHT31;53663;42.676;23.238;2023-09-19T11:32:06;25.50;47.77
66752;SHT31;53663;42.676;23.238;2023-09-19T11:34:42;25.55;47.03
66752;SHT31;53663;42.676;23.238;2023-09-19T11:39:37;25.24;47.56
66752;SHT31;53663;42.676;23.238;2023-09-19T11:48:14;25.36;47.18
66752;SHT31;53663;42.676;23.238;2023-09-19T11:50:42;25.54;46.73
66752;SHT31;53663;42.676;23.238;2023-09-19T11:53:10;25.51;48.21
66752;SHT31;53663;42.676;23.238;2023-09-19T11:55:41;25.44;47.21
66752;SHT31;53663;42.676;23.238;2023-09-19T11:58:11;25.64;47.36
66752;SHT31;53663;42.676;23.238;2023-09-19T12:00:39;25.64;47.30
66752;SHT31;53663;42.676;23.238;2023-09-19T12:03:10;25.68;46.45
66752;SHT31;53663;42.676;23.238;2023-09-19T12:05:37;25.55;46.63
66752;SHT31;53663;42.676;23.238;2023-09-19T12:08:04;25.43;47.30
66752;SHT31;53663;42.676;23.238;2023-09-19T12:10:32;25.00;48.41
66752;SHT31;53663;42.676;23.238;2023-09-19T12:12:58;25.50;48.47
66752;SHT31;53663;42.676;23.238;2023-09-19T12:15:28;25.71;46.99
66752;SHT31;53663;42.676;23.238;2023-09-19T12:17:59;25.89;46.42
66752;SHT31;53663;42.676;23.238;2023-09-19T12:20:41;26.08;47.21
66752;SHT31;53663;42.676;23.238;2023-09-19T12:23:15;25.50;47.06
66752;SHT31;53663;42.676;23.238;2023-09-19T12:25:42;25.47;48.09
66752;SHT31;53663;42.676;23.238;2023-09-19T12:28:11;25.24;48.26
66752;SHT31;53663;42.676;23.238;2023-09-19T12:30:37;25.00;48.84
66752;SHT31;53663;42.676;23.238;2023-09-19T12:33:16;25.13;48.41
66752;SHT31;53663;42.676;23.238;2023-09-19T12:35:44;25.06;48.51
66752;SHT31;53663;42.676;23.238;2023-09-19T12:38:10;25.19;48.72
66752;SHT31;53663;42.676;23.238;2023-09-19T12:40:38;25.13;48.81
66752;SHT31;53663;42.676;23.238;2023-09-19T12:43:07;25.43;49.07
66752;SHT31;53663;42.676;23.238;2023-09-19T12:45:35;25.44;47.86
66752;SHT31;53663;42.676;23.238;2023-09-19T12:48:22;25.51;48.78
66752;SHT31;53663;42.676;23.238;2023-09-19T12:51:04;25.75;48.43
66752;SHT31;53663;42.676;23.238;2023-09-19T12:53:59;25.40;47.27
66752;SHT31;53663;42.676;23.238;2023-09-19T12:56:25;25.38;49.27
66752;SHT31;53663;42.676;23.238;2023-09-19T12:58:56;25.50;47.20
66752;SHT31;53663;42.676;23.238;2023-09-19T13:01:24;24.99;47.11
66752;SHT31;53663;42.676;23.238;2023-09-19T13:04:12;24.76;47.81
66752;SHT31;53663;42.676;23.238;2023-09-19T13:06:38;24.78;47.93
66752;SHT31;53663;42.676;23.238;2023-09-19T13:09:12;25.00;47.70
66752;SHT31;53663;42.676;23.238;2023-09-19T13:11:39;24.82;47.99
66752;SHT31;53663;42.676;23.238;2023-09-19T13:17:02;25.05;47.86
66752;SHT31;53663;42.676;23.238;2023-09-19T13:19:51;24.96;48.60
66752;SHT31;53663;42.676;23.238;2023-09-19T13:25:09;25.26;48.27
66752;SHT31;53663;42.676;23.238;2023-09-19T13:27:46;24.99;49.40
66752;SHT31;53663;42.676;23.238;2023-09-19T13:30:13;25.16;48.62
66752;SHT31;53663;42.676;23.238;2023-09-19T13:32:39;25.26;48.50
66752;SHT31;53663;42.676;23.238;2023-09-19T13:35:07;25.22;48.78
66752;SHT31;53663;42.676;23.238;2023-09-19T13:37:38;25.33;48.48
66752;SHT31;53663;42.676;23.238;2023-09-19T13:40:12;25.51;48.34
66752;SHT31;53663;42.676;23.238;2023-09-19T13:42:38;25.48;47.69
66752;SHT31;53663;42.676;23.238;2023-09-19T13:45:05;25.31;47.91
66752;SHT31;53663;42.676;23.238;2023-09-19T13:47:32;25.23;48.48
66752;SHT31;53663;42.676;23.238;2023-09-19T13:50:01;25.12;48.86
66752;SHT31;53663;42.676;23.238;2023-09-19T13:52:29;25.07;49.06
66752;SHT31;53663;42.676;23.238;2023-09-19T13:54:56;25.05;49.21
66752;SHT31;53663;42.676;23.238;2023-09-19T13:57:22;25.00;49.73
66752;SHT31;53663;42.676;23.238;2023-09-19T13:59:48;25.09;49.63
66752;SHT31;53663;42.676;23.238;2023-09-19T14:02:13;25.27;49.11
66752;SHT31;53663;42.676;23.238;2023-09-19T14:04:40;25.31;49.83
66752;SHT31;53663;42.676;23.238;2023-09-19T14:07:06;25.47;48.58
66752;SHT31;53663;42.676;23.238;2023-09-19T14:09:33;25.53;50.36
66752;SHT31;53663;42.676;23.238;2023-09-19T14:11:59;25.63;49.53
66752;SHT31;53663;42.676;23.238;2023-09-19T14:14:24;25.65;48.33
66752;SHT31;53663;42.676;23.238;2023-09-19T14:16:50;25.48;48.41
66752;SHT31;53663;42.676;23.238;2023-09-19T14:19:17;25.38;49.20
66752;SHT31;53663;42.676;23.238;2023-09-19T14:21:43;25.33;49.17
66752;SHT31;53663;42.676;23.238;2023-09-19T14:24:09;25.30;49.92
66752;SHT31;53663;42.676;23.238;2023-09-19T14:26:38;25.24;49.80
66752;SHT31;53663;42.676;23.238;2023-09-19T14:29:04;25.20;49.57
66752;SHT31;53663;42.676;23.238;2023-09-19T14:31:33;25.23;49.25
66752;SHT31;53663;42.676;23.238;2023-09-19T14:33:59;25.12;49.99
66752;SHT31;53663;42.676;23.238;2023-09-19T14:36:25;25.10;49.54
66752;SHT31;53663;42.676;23.238;2023-09-19T14:38:55;25.16;49.82
66752;SHT31;53663;42.676;23.238;2023-09-19T14:41:22;25.26;49.09
66752;SHT31;53663;42.676;23.238;2023-09-19T14:43:54;25.15;48.88
66752;SHT31;53663;42.676;23.238;2023-09-19T14:46:21;24.92;49.37
66752;SHT31;53663;42.676;23.238;2023-09-19T14:48:46;24.86;50.17
66752;SHT31;53663;42.676;23.238;2023-09-19T14:51:15;24.75;50.47
66752;SHT31;53663;42.676;23.238;2023-09-19T14:53:41;24.72;51.29
66752;SHT31;53663;42.676;23.238;2023-09-19T14:56:08;24.78;50.77
66752;SHT31;53663;42.676;23.238;2023-09-19T14:58:34;24.71;51.18
66752;SHT31;53663;42.676;23.238;2023-09-19T15:01:12;24.61;51.17
66752;SHT31;53663;42.676;23.238;2023-09-19T15:03:39;24.55;51.60
66752;SHT31;53663;42.676;23.238;2023-09-19T15:06:10;24.54;51.87
66752;SHT31;53663;42.676;23.238;2023-09-19T15:08:40;24.57;51.75
66752;SHT31;53663;42.676;23.238;2023-09-19T15:11:08;24.54;51.59
66752;SHT31;53663;42.676;23.238;2023-09-19T15:13:34;24.48;51.10
66752;SHT31;53663;42.676;23.238;2023-09-19T15:16:03;24.42;51.45
66752;SHT31;53663;42.676;23.238;2023-09-19T15:18:30;24.37;51.96
66752;SHT31;53663;42.676;23.238;2023-09-19T15:21:02;24.34;52.31
66752;SHT31;53663;42.676;23.238;2023-09-19T15:23:35;24.31;53.07
66752;SHT31;53663;42.676;23.238;2023-09-19T15:26:05;24.31;53.43
66752;SHT31;53663;42.676;23.238;2023-09-19T15:28:32;24.31;53.33
66752;SHT31;53663;42.676;23.238;2023-09-19T15:31:06;24.27;53.72
66752;SHT31;53663;42.676;23.238;2023-09-19T15:33:32;24.24;53.91
66752;SHT31;53663;42.676;23.238;2023-09-19T15:36:04;24.20;53.53
66752;SHT31;53663;42.676;23.238;2023-09-19T15:38:30;24.11;53.68
66752;SHT31;53663;42.676;23.238;2023-09-19T15:40:58;24.06;53.78
66752;SHT31;53663;42.676;23.238;2023-09-19T15:43:23;23.96;54.30
66752;SHT31;53663;42.676;23.238;2023-09-19T15:45:49;23.89;54.13
66752;SHT31;53663;42.676;23.238;2023-09-19T15:48:15;23.99;53.90
66752;SHT31;53663;42.676;23.238;2023-09-19T15:50:42;23.90;54.09
66752;SHT31;53663;42.676;23.238;2023-09-19T15:53:09;23.84;54.21
66752;SHT31;53663;42.676;23.238;2023-09-19T15:55:38;23.82;54.44
66752;SHT31;53663;42.676;23.238;2023-09-19T15:58:08;23.79;54.59
66752;SHT31;53663;42.676;23.238;2023-09-19T16:00:34;23.79;54.58
66752;SHT31;53663;42.676;23.238;2023-09-19T16:03:01;23.74;54.88
66752;SHT31;53663;42.676;23.238;2023-09-19T16:05:28;23.69;54.86
66752;SHT31;53663;42.676;23.238;2023-09-19T16:08:03;23.62;55.25
66752;SHT31;53663;42.676;23.238;2023-09-19T16:10:29;23.72;54.91
66752;SHT31;53663;42.676;23.238;2023-09-19T16:12:54;23.55;55.61